sensor_id;sensor_type;location;lat;lon;timestamp;P1;durP1;ratioP1;P2;durP2;ratioP2
67768;SDS011;54569;52.018;5.584;2022-11-18T00:00:50;3.92;;;2.35;;
67768;SDS011;54569;52.018;5.584;2022-11-18T00:03:16;4.35;;;2.33;;
67768;SDS011;54569;52.018;5.584;2022-11-18T00:05:42;4.25;;;2.05;;
67768;SDS011;54569;52.018;5.584;2022-11-18T00:08:16;4.45;;;2.05;;
67768;SDS011;54569;52.018;5.584;2022-11-18T00:10:42;3.90;;;2.33;;
67768;SDS011;54569;52.018;5.584;2022-11-18T00:13:10;6.07;;;2.20;;
67768;SDS011;54569;52.018;5.584;2022-11-18T00:16:01;4.45;;;2.53;;
67768;SDS011;54569;52.018;5.584;2022-11-18T00:18:29;3.45;;;1.83;;
67768;SDS011;54569;52.018;5.584;2022-11-18T00:20:54;3.45;;;2.45;;
67768;SDS011;54569;52.018;5.584;2022-11-18T00:23:24;4.45;;;2.45;;
67768;SDS011;54569;52.018;5.584;2022-11-18T00:25:49;2.97;;;1.98;;
67768;SDS011;54569;52.018;5.584;2022-11-18T00:28:15;5.45;;;2.30;;
67768;SDS011;54569;52.018;5.584;2022-11-18T00:30:41;2.90;;;2.00;;
67768;SDS011;54569;52.018;5.584;2022-11-18T00:33:06;4.45;;;2.25;;
67768;SDS011;54569;52.018;5.584;2022-11-18T00:35:32;7.35;;;2.20;;
67768;SDS011;54569;52.018;5.584;2022-11-18T00:38:01;3.30;;;2.38;;
67768;SDS011;54569;52.018;5.584;2022-11-18T00:40:26;2.67;;;2.30;;
67768;SDS011;54569;52.018;5.584;2022-11-18T00:42:52;3.90;;;2.20;;
67768;SDS011;54569;52.018;5.584;2022-11-18T00:45:18;5.55;;;2.33;;
67768;SDS011;54569;52.018;5.584;2022-11-18T00:47:44;3.78;;;2.00;;
67768;SDS011;54569;52.018;5.584;2022-11-18T00:50:10;2.92;;;2.10;;
67768;SDS011;54569;52.018;5.584;2022-11-18T00:52:36;5.45;;;2.35;;
67768;SDS011;54569;52.018;5.584;2022-11-18T00:55:02;6.75;;;2.78;;
67768;SDS011;54569;52.018;5.584;2022-11-18T00:57:28;4.63;;;2.28;;
67768;SDS011;54569;52.018;5.584;2022-11-18T00:59:54;5.13;;;2.35;;
67768;SDS011;54569;52.018;5.584;2022-11-18T01:02:20;5.47;;;2.35;;
67768;SDS011;54569;52.018;5.584;2022-11-18T01:04:45;4.97;;;2.20;;
67768;SDS011;54569;52.018;5.584;2022-11-18T01:07:11;3.92;;;2.22;;
67768;SDS011;54569;52.018;5.584;2022-11-18T01:09:37;3.72;;;2.22;;
67768;SDS011;54569;52.018;5.584;2022-11-18T01:12:02;5.72;;;2.40;;
67768;SDS011;54569;52.018;5.584;2022-11-18T01:17:12;3.97;;;2.53;;
67768;SDS011;54569;52.018;5.584;2022-11-18T01:19:38;4.85;;;2.28;;
67768;SDS011;54569;52.018;5.584;2022-11-18T01:22:04;4.15;;;2.70;;
67768;SDS011;54569;52.018;5.584;2022-11-18T01:24:30;3.78;;;2.40;;
67768;SDS011;54569;52.018;5.584;2022-11-18T01:26:57;2.83;;;2.00;;
67768;SDS011;54569;52.018;5.584;2022-11-18T01:29:23;3.70;;;1.95;;
67768;SDS011;54569;52.018;5.584;2022-11-18T01:31:48;5.93;;;2.15;;
67768;SDS011;54569;52.018;5.584;2022-11-18T01:34:14;3.65;;;2.70;;
67768;SDS011;54569;52.018;5.584;2022-11-18T01:36:39;2.63;;;2.00;;
67768;SDS011;54569;52.018;5.584;2022-11-18T01:39:05;4.30;;;2.55;;
67768;SDS011;54569;52.018;5.584;2022-11-18T01:41:31;4.82;;;2.17;;
67768;SDS011;54569;52.018;5.584;2022-11-18T01:43:57;3.63;;;2.25;;
67768;SDS011;54569;52.018;5.584;2022-11-18T01:46:29;4.32;;;2.20;;
67768;SDS011;54569;52.018;5.584;2022-11-18T01:49:10;3.58;;;2.30;;
67768;SDS011;54569;52.018;5.584;2022-11-18T01:51:53;3.75;;;1.90;;
67768;SDS011;54569;52.018;5.584;2022-11-18T01:54:34;4.88;;;2.45;;
67768;SDS011;54569;52.018;5.584;2022-11-18T01:57:05;2.90;;;1.90;;
67768;SDS011;54569;52.018;5.584;2022-11-18T01:59:36;5.47;;;2.30;;
67768;SDS011;54569;52.018;5.584;2022-11-18T02:02:07;4.30;;;2.17;;
67768;SDS011;54569;52.018;5.584;2022-11-18T02:04:36;2.92;;;2.40;;
67768;SDS011;54569;52.018;5.584;2022-11-18T02:07:04;5.30;;;2.20;;
67768;SDS011;54569;52.018;5.584;2022-11-18T02:09:31;4.75;;;2.20;;
67768;SDS011;54569;52.018;5.584;2022-11-18T02:11:57;4.00;;;2.35;;
67768;SDS011;54569;52.018;5.584;2022-11-18T02:14:23;4.05;;;2.08;;
67768;SDS011;54569;52.018;5.584;2022-11-18T02:25:12;3.25;;;2.20;;
67768;SDS011;54569;52.018;5.584;2022-11-18T02:30:41;4.15;;;2.20;;
67768;SDS011;54569;52.018;5.584;2022-11-18T02:33:24;6.57;;;2.30;;
67768;SDS011;54569;52.018;5.584;2022-11-18T02:39:04;6.03;;;2.43;;
67768;SDS011;54569;52.018;5.584;2022-11-18T02:41:34;3.30;;;2.00;;
67768;SDS011;54569;52.018;5.584;2022-11-18T02:44:04;5.43;;;2.10;;
67768;SDS011;54569;52.018;5.584;2022-11-18T02:46:39;4.72;;;2.15;;
67768;SDS011;54569;52.018;5.584;2022-11-18T02:49:08;3.15;;;1.83;;
67768;SDS011;54569;52.018;5.584;2022-11-18T02:51:39;6.75;;;2.55;;
67768;SDS011;54569;52.018;5.584;2022-11-18T02:54:07;4.47;;;2.35;;
67768;SDS011;54569;52.018;5.584;2022-11-18T02:56:35;5.10;;;2.50;;
67768;SDS011;54569;52.018;5.584;2022-11-18T02:59:01;4.95;;;2.50;;
67768;SDS011;54569;52.018;5.584;2022-11-18T03:01:29;6.03;;;2.35;;
67768;SDS011;54569;52.018;5.584;2022-11-18T03:03:56;5.20;;;2.25;;
67768;SDS011;54569;52.018;5.584;2022-11-18T03:06:35;6.55;;;2.42;;
67768;SDS011;54569;52.018;5.584;2022-11-18T03:22:53;2.97;;;2.30;;
67768;SDS011;54569;52.018;5.584;2022-11-18T03:25:27;3.85;;;2.60;;
67768;SDS011;54569;52.018;5.584;2022-11-18T03:28:13;4.28;;;2.17;;
67768;SDS011;54569;52.018;5.584;2022-11-18T03:30:55;3.65;;;2.00;;
67768;SDS011;54569;52.018;5.584;2022-11-18T03:36:32;3.28;;;2.05;;
67768;SDS011;54569;52.018;5.584;2022-11-18T03:39:04;4.07;;;1.95;;
67768;SDS011;54569;52.018;5.584;2022-11-18T03:41:34;4.78;;;1.98;;
67768;SDS011;54569;52.018;5.584;2022-11-18T03:44:09;4.63;;;2.13;;
67768;SDS011;54569;52.018;5.584;2022-11-18T03:46:43;2.45;;;2.20;;
67768;SDS011;54569;52.018;5.584;2022-11-18T03:49:32;4.00;;;2.30;;
67768;SDS011;54569;52.018;5.584;2022-11-18T03:52:13;5.07;;;2.00;;
67768;SDS011;54569;52.018;5.584;2022-11-18T03:54:42;3.97;;;2.03;;
67768;SDS011;54569;52.018;5.584;2022-11-18T03:57:13;3.30;;;2.00;;
67768;SDS011;54569;52.018;5.584;2022-11-18T03:59:47;6.70;;;1.98;;
67768;SDS011;54569;52.018;5.584;2022-11-18T04:02:26;4.30;;;2.60;;
67768;SDS011;54569;52.018;5.584;2022-11-18T04:04:53;2.63;;;2.13;;
67768;SDS011;54569;52.018;5.584;2022-11-18T04:12:24;4.60;;;2.00;;
67768;SDS011;54569;52.018;5.584;2022-11-18T04:14:53;2.70;;;2.10;;
67768;SDS011;54569;52.018;5.584;2022-11-18T04:17:25;4.95;;;2.45;;
67768;SDS011;54569;52.018;5.584;2022-11-18T04:19:52;4.53;;;2.55;;
67768;SDS011;54569;52.018;5.584;2022-11-18T04:22:18;5.55;;;2.30;;
67768;SDS011;54569;52.018;5.584;2022-11-18T04:24:44;2.95;;;2.10;;
67768;SDS011;54569;52.018;5.584;2022-11-18T04:27:10;6.57;;;2.45;;
67768;SDS011;54569;52.018;5.584;2022-11-18T04:29:36;5.47;;;2.13;;
67768;SDS011;54569;52.018;5.584;2022-11-18T04:32:02;7.18;;;2.38;;
67768;SDS011;54569;52.018;5.584;2022-11-18T04:34:29;3.20;;;2.08;;
67768;SDS011;54569;52.018;5.584;2022-11-18T04:36:55;4.28;;;2.25;;
67768;SDS011;54569;52.018;5.584;2022-11-18T04:39:21;4.60;;;2.15;;
67768;SDS011;54569;52.018;5.584;2022-11-18T04:41:46;6.85;;;2.22;;
67768;SDS011;54569;52.018;5.584;2022-11-18T04:44:25;3.35;;;2.17;;
67768;SDS011;54569;52.018;5.584;2022-11-18T04:46:58;3.35;;;2.33;;
67768;SDS011;54569;52.018;5.584;2022-11-18T04:49:26;6.00;;;2.35;;
67768;SDS011;54569;52.018;5.584;2022-11-18T04:51:52;3.50;;;2.42;;
67768;SDS011;54569;52.018;5.584;2022-11-18T04:54:19;2.13;;;1.92;;
67768;SDS011;54569;52.018;5.584;2022-11-18T04:56:48;5.25;;;2.13;;
67768;SDS011;54569;52.018;5.584;2022-11-18T04:59:14;2.75;;;2.33;;
67768;SDS011;54569;52.018;5.584;2022-11-18T05:01:42;4.13;;;2.22;;
67768;SDS011;54569;52.018;5.584;2022-11-18T05:04:11;4.78;;;2.35;;
67768;SDS011;54569;52.018;5.584;2022-11-18T05:06:37;3.50;;;2.17;;
67768;SDS011;54569;52.018;5.584;2022-11-18T05:09:03;5.93;;;1.90;;
67768;SDS011;54569;52.018;5.584;2022-11-18T05:11:29;3.33;;;2.25;;
67768;SDS011;54569;52.018;5.584;2022-11-18T05:14:13;3.60;;;2.33;;
67768;SDS011;54569;52.018;5.584;2022-11-18T05:16:39;4.57;;;2.10;;
67768;SDS011;54569;52.018;5.584;2022-11-18T05:19:05;3.83;;;2.20;;
67768;SDS011;54569;52.018;5.584;2022-11-18T05:21:31;4.43;;;2.70;;
67768;SDS011;54569;52.018;5.584;2022-11-18T05:23:58;4.38;;;2.20;;
67768;SDS011;54569;52.018;5.584;2022-11-18T05:26:24;6.53;;;2.50;;
67768;SDS011;54569;52.018;5.584;2022-11-18T05:28:50;5.90;;;2.30;;
67768;SDS011;54569;52.018;5.584;2022-11-18T05:31:16;5.18;;;2.70;;
67768;SDS011;54569;52.018;5.584;2022-11-18T05:33:42;4.03;;;2.15;;
67768;SDS011;54569;52.018;5.584;2022-11-18T05:36:12;4.72;;;2.20;;
67768;SDS011;54569;52.018;5.584;2022-11-18T05:38:40;2.25;;;1.80;;
67768;SDS011;54569;52.018;5.584;2022-11-18T05:41:06;3.25;;;2.38;;
67768;SDS011;54569;52.018;5.584;2022-11-18T05:43:33;3.45;;;1.90;;
67768;SDS011;54569;52.018;5.584;2022-11-18T05:45:59;3.15;;;2.10;;
67768;SDS011;54569;52.018;5.584;2022-11-18T05:48:25;2.42;;;2.10;;
67768;SDS011;54569;52.018;5.584;2022-11-18T05:50:52;4.32;;;3.22;;
67768;SDS011;54569;52.018;5.584;2022-11-18T05:53:19;3.35;;;2.25;;
67768;SDS011;54569;52.018;5.584;2022-11-18T05:58:42;4.30;;;2.67;;
67768;SDS011;54569;52.018;5.584;2022-11-18T06:01:07;2.40;;;2.25;;
67768;SDS011;54569;52.018;5.584;2022-11-18T06:03:37;3.45;;;2.58;;
67768;SDS011;54569;52.018;5.584;2022-11-18T06:06:05;3.60;;;2.80;;
67768;SDS011;54569;52.018;5.584;2022-11-18T06:08:34;3.63;;;2.20;;
67768;SDS011;54569;52.018;5.584;2022-11-18T06:11:04;3.97;;;3.00;;
67768;SDS011;54569;52.018;5.584;2022-11-18T06:13:34;3.90;;;2.60;;
67768;SDS011;54569;52.018;5.584;2022-11-18T06:16:07;5.00;;;2.60;;
67768;SDS011;54569;52.018;5.584;2022-11-18T06:18:32;5.25;;;2.88;;
67768;SDS011;54569;52.018;5.584;2022-11-18T06:21:00;4.30;;;2.38;;
67768;SDS011;54569;52.018;5.584;2022-11-18T06:23:35;7.25;;;2.78;;
67768;SDS011;54569;52.018;5.584;2022-11-18T06:26:04;5.38;;;4.25;;
67768;SDS011;54569;52.018;5.584;2022-11-18T06:28:29;3.65;;;3.03;;
67768;SDS011;54569;52.018;5.584;2022-11-18T06:30:55;4.88;;;2.42;;
67768;SDS011;54569;52.018;5.584;2022-11-18T06:33:21;3.17;;;2.40;;
67768;SDS011;54569;52.018;5.584;2022-11-18T06:35:46;4.25;;;2.78;;
67768;SDS011;54569;52.018;5.584;2022-11-18T06:38:12;4.20;;;2.70;;
67768;SDS011;54569;52.018;5.584;2022-11-18T06:40:38;3.00;;;2.17;;
67768;SDS011;54569;52.018;5.584;2022-11-18T06:43:04;7.07;;;2.70;;
67768;SDS011;54569;52.018;5.584;2022-11-18T06:45:49;5.20;;;2.65;;
67768;SDS011;54569;52.018;5.584;2022-11-18T06:48:33;3.38;;;2.55;;
67768;SDS011;54569;52.018;5.584;2022-11-18T06:50:59;4.90;;;2.83;;
67768;SDS011;54569;52.018;5.584;2022-11-18T06:53:24;5.38;;;2.47;;
67768;SDS011;54569;52.018;5.584;2022-11-18T06:55:50;3.88;;;2.60;;
67768;SDS011;54569;52.018;5.584;2022-11-18T06:58:16;7.07;;;3.03;;
67768;SDS011;54569;52.018;5.584;2022-11-18T07:00:41;5.45;;;3.28;;
67768;SDS011;54569;52.018;5.584;2022-11-18T07:03:07;5.78;;;3.10;;
67768;SDS011;54569;52.018;5.584;2022-11-18T07:05:32;6.38;;;2.72;;
67768;SDS011;54569;52.018;5.584;2022-11-18T07:07:58;4.68;;;2.83;;
67768;SDS011;54569;52.018;5.584;2022-11-18T07:10:24;5.55;;;3.33;;
67768;SDS011;54569;52.018;5.584;2022-11-18T07:12:49;3.47;;;2.53;;
67768;SDS011;54569;52.018;5.584;2022-11-18T07:15:15;3.50;;;2.72;;
67768;SDS011;54569;52.018;5.584;2022-11-18T07:17:42;4.30;;;2.78;;
67768;SDS011;54569;52.018;5.584;2022-11-18T07:20:07;8.05;;;3.20;;
67768;SDS011;54569;52.018;5.584;2022-11-18T07:22:33;3.60;;;2.75;;
67768;SDS011;54569;52.018;5.584;2022-11-18T07:24:59;6.55;;;3.10;;
67768;SDS011;54569;52.018;5.584;2022-11-18T07:27:26;5.03;;;2.72;;
67768;SDS011;54569;52.018;5.584;2022-11-18T07:29:51;5.88;;;2.80;;
67768;SDS011;54569;52.018;5.584;2022-11-18T07:32:17;3.20;;;2.35;;
67768;SDS011;54569;52.018;5.584;2022-11-18T07:34:42;6.00;;;2.60;;
67768;SDS011;54569;52.018;5.584;2022-11-18T07:37:09;6.18;;;2.95;;
67768;SDS011;54569;52.018;5.584;2022-11-18T07:39:34;4.38;;;3.05;;
67768;SDS011;54569;52.018;5.584;2022-11-18T07:42:00;5.00;;;2.72;;
67768;SDS011;54569;52.018;5.584;2022-11-18T07:44:26;5.18;;;2.60;;
67768;SDS011;54569;52.018;5.584;2022-11-18T07:46:51;5.15;;;2.80;;
67768;SDS011;54569;52.018;5.584;2022-11-18T07:49:17;4.35;;;3.33;;
67768;SDS011;54569;52.018;5.584;2022-11-18T07:51:42;6.07;;;2.90;;
67768;SDS011;54569;52.018;5.584;2022-11-18T07:54:09;3.38;;;2.63;;
67768;SDS011;54569;52.018;5.584;2022-11-18T07:56:36;3.78;;;2.80;;
67768;SDS011;54569;52.018;5.584;2022-11-18T07:59:02;4.40;;;2.92;;
67768;SDS011;54569;52.018;5.584;2022-11-18T08:01:28;5.10;;;3.10;;
67768;SDS011;54569;52.018;5.584;2022-11-18T08:03:57;6.72;;;3.00;;
67768;SDS011;54569;52.018;5.584;2022-11-18T08:06:30;5.13;;;2.90;;
67768;SDS011;54569;52.018;5.584;2022-11-18T08:08:57;3.72;;;2.03;;
67768;SDS011;54569;52.018;5.584;2022-11-18T08:11:22;3.95;;;2.47;;
67768;SDS011;54569;52.018;5.584;2022-11-18T08:13:48;4.10;;;2.65;;
67768;SDS011;54569;52.018;5.584;2022-11-18T08:16:16;3.42;;;2.65;;
67768;SDS011;54569;52.018;5.584;2022-11-18T08:18:44;4.38;;;2.50;;
67768;SDS011;54569;52.018;5.584;2022-11-18T08:21:10;5.85;;;2.42;;
67768;SDS011;54569;52.018;5.584;2022-11-18T08:23:36;3.88;;;2.28;;
67768;SDS011;54569;52.018;5.584;2022-11-18T08:26:12;3.42;;;2.15;;
67768;SDS011;54569;52.018;5.584;2022-11-18T08:28:42;4.18;;;2.35;;
67768;SDS011;54569;52.018;5.584;2022-11-18T08:31:11;4.45;;;2.15;;
67768;SDS011;54569;52.018;5.584;2022-11-18T08:33:53;3.47;;;2.42;;
67768;SDS011;54569;52.018;5.584;2022-11-18T08:36:24;4.45;;;2.20;;
67768;SDS011;54569;52.018;5.584;2022-11-18T08:38:53;3.67;;;2.25;;
67768;SDS011;54569;52.018;5.584;2022-11-18T08:41:33;2.83;;;2.08;;
67768;SDS011;54569;52.018;5.584;2022-11-18T08:44:00;3.67;;;2.30;;
67768;SDS011;54569;52.018;5.584;2022-11-18T08:46:27;3.88;;;2.28;;
67768;SDS011;54569;52.018;5.584;2022-11-18T08:48:53;3.53;;;2.83;;
67768;SDS011;54569;52.018;5.584;2022-11-18T08:51:19;4.18;;;2.30;;
67768;SDS011;54569;52.018;5.584;2022-11-18T08:53:45;4.00;;;2.58;;
67768;SDS011;54569;52.018;5.584;2022-11-18T08:56:14;5.05;;;2.40;;
67768;SDS011;54569;52.018;5.584;2022-11-18T08:58:42;4.32;;;2.53;;
67768;SDS011;54569;52.018;5.584;2022-11-18T09:01:08;7.03;;;2.97;;
67768;SDS011;54569;52.018;5.584;2022-11-18T09:03:34;3.35;;;2.38;;
67768;SDS011;54569;52.018;5.584;2022-11-18T09:06:07;3.53;;;2.58;;
67768;SDS011;54569;52.018;5.584;2022-11-18T09:08:34;4.57;;;2.40;;
67768;SDS011;54569;52.018;5.584;2022-11-18T09:11:07;5.30;;;2.30;;
67768;SDS011;54569;52.018;5.584;2022-11-18T09:13:37;4.53;;;2.40;;
67768;SDS011;54569;52.018;5.584;2022-11-18T09:16:03;3.38;;;2.38;;
67768;SDS011;54569;52.018;5.584;2022-11-18T09:18:29;7.05;;;2.70;;
67768;SDS011;54569;52.018;5.584;2022-11-18T09:20:56;3.75;;;2.67;;
67768;SDS011;54569;52.018;5.584;2022-11-18T09:23:22;4.20;;;2.83;;
67768;SDS011;54569;52.018;5.584;2022-11-18T09:25:55;4.85;;;2.03;;
67768;SDS011;54569;52.018;5.584;2022-11-18T09:28:24;4.32;;;2.45;;
67768;SDS011;54569;52.018;5.584;2022-11-18T09:30:51;3.85;;;2.38;;
67768;SDS011;54569;52.018;5.584;2022-11-18T09:33:16;4.43;;;2.17;;
67768;SDS011;54569;52.018;5.584;2022-11-18T09:35:42;5.18;;;2.60;;
67768;SDS011;54569;52.018;5.584;2022-11-18T09:38:08;3.90;;;1.95;;
67768;SDS011;54569;52.018;5.584;2022-11-18T09:40:47;3.80;;;1.98;;
67768;SDS011;54569;52.018;5.584;2022-11-18T09:45:56;5.82;;;2.30;;
67768;SDS011;54569;52.018;5.584;2022-11-18T09:48:27;3.70;;;2.63;;
67768;SDS011;54569;52.018;5.584;2022-11-18T09:51:12;5.38;;;2.55;;
67768;SDS011;54569;52.018;5.584;2022-11-18T09:53:41;4.43;;;2.00;;
67768;SDS011;54569;52.018;5.584;2022-11-18T09:56:12;5.60;;;2.45;;
67768;SDS011;54569;52.018;5.584;2022-11-18T09:58:40;2.95;;;2.33;;
67768;SDS011;54569;52.018;5.584;2022-11-18T10:01:11;6.97;;;2.53;;
67768;SDS011;54569;52.018;5.584;2022-11-18T10:03:38;4.05;;;2.05;;
67768;SDS011;54569;52.018;5.584;2022-11-18T10:08:44;5.70;;;2.50;;
67768;SDS011;54569;52.018;5.584;2022-11-18T10:11:26;3.50;;;1.80;;
67768;SDS011;54569;52.018;5.584;2022-11-18T10:13:59;3.60;;;2.00;;
67768;SDS011;54569;52.018;5.584;2022-11-18T10:16:43;4.35;;;2.00;;
67768;SDS011;54569;52.018;5.584;2022-11-18T10:25:14;4.50;;;2.50;;
67768;SDS011;54569;52.018;5.584;2022-11-18T10:27:41;3.42;;;2.95;;
67768;SDS011;54569;52.018;5.584;2022-11-18T10:30:12;3.67;;;2.47;;
67768;SDS011;54569;52.018;5.584;2022-11-18T10:32:56;6.78;;;3.47;;
67768;SDS011;54569;52.018;5.584;2022-11-18T10:35:28;5.85;;;2.75;;
67768;SDS011;54569;52.018;5.584;2022-11-18T10:38:05;5.80;;;2.50;;
67768;SDS011;54569;52.018;5.584;2022-11-18T10:40:57;5.63;;;2.60;;
67768;SDS011;54569;52.018;5.584;2022-11-18T10:48:41;3.70;;;2.42;;
67768;SDS011;54569;52.018;5.584;2022-11-18T10:51:20;4.35;;;2.33;;
67768;SDS011;54569;52.018;5.584;2022-11-18T10:53:47;3.17;;;2.17;;
67768;SDS011;54569;52.018;5.584;2022-11-18T10:56:13;6.22;;;2.47;;
67768;SDS011;54569;52.018;5.584;2022-11-18T10:58:45;4.68;;;2.50;;
67768;SDS011;54569;52.018;5.584;2022-11-18T11:01:21;3.58;;;2.08;;
67768;SDS011;54569;52.018;5.584;2022-11-18T11:03:58;6.03;;;2.42;;
67768;SDS011;54569;52.018;5.584;2022-11-18T11:06:29;2.58;;;2.22;;
67768;SDS011;54569;52.018;5.584;2022-11-18T11:09:22;4.63;;;2.75;;
67768;SDS011;54569;52.018;5.584;2022-11-18T11:17:12;4.55;;;2.42;;
67768;SDS011;54569;52.018;5.584;2022-11-18T11:19:45;7.80;;;3.25;;
67768;SDS011;54569;52.018;5.584;2022-11-18T11:22:31;3.75;;;2.30;;
67768;SDS011;54569;52.018;5.584;2022-11-18T11:24:57;5.18;;;2.40;;
67768;SDS011;54569;52.018;5.584;2022-11-18T11:27:41;5.80;;;2.80;;
67768;SDS011;54569;52.018;5.584;2022-11-18T11:30:53;4.93;;;2.65;;
67768;SDS011;54569;52.018;5.584;2022-11-18T11:33:32;4.50;;;2.60;;
67768;SDS011;54569;52.018;5.584;2022-11-18T11:36:12;7.07;;;3.53;;
67768;SDS011;54569;52.018;5.584;2022-11-18T11:41:29;5.30;;;2.72;;
67768;SDS011;54569;52.018;5.584;2022-11-18T11:50:01;5.88;;;2.60;;
67768;SDS011;54569;52.018;5.584;2022-11-18T12:00:57;5.15;;;3.28;;
67768;SDS011;54569;52.018;5.584;2022-11-18T12:03:46;4.75;;;3.08;;
67768;SDS011;54569;52.018;5.584;2022-11-18T12:06:27;3.90;;;2.70;;
67768;SDS011;54569;52.018;5.584;2022-11-18T12:09:04;7.72;;;3.30;;
67768;SDS011;54569;52.018;5.584;2022-11-18T12:11:45;7.28;;;2.92;;
67768;SDS011;54569;52.018;5.584;2022-11-18T12:14:27;7.32;;;2.95;;
67768;SDS011;54569;52.018;5.584;2022-11-18T12:17:06;7.68;;;3.03;;
67768;SDS011;54569;52.018;5.584;2022-11-18T12:19:36;5.38;;;3.38;;
67768;SDS011;54569;52.018;5.584;2022-11-18T12:22:03;5.25;;;3.40;;
67768;SDS011;54569;52.018;5.584;2022-11-18T12:24:31;8.15;;;3.28;;
67768;SDS011;54569;52.018;5.584;2022-11-18T12:29:41;5.40;;;3.17;;
67768;SDS011;54569;52.018;5.584;2022-11-18T12:32:27;5.10;;;2.70;;
67768;SDS011;54569;52.018;5.584;2022-11-18T12:40:38;6.10;;;2.95;;
67768;SDS011;54569;52.018;5.584;2022-11-18T12:51:55;6.72;;;3.30;;
67768;SDS011;54569;52.018;5.584;2022-11-18T12:54:32;5.60;;;2.88;;
67768;SDS011;54569;52.018;5.584;2022-11-18T12:57:21;6.22;;;3.53;;
67768;SDS011;54569;52.018;5.584;2022-11-18T12:59:50;6.35;;;3.10;;
67768;SDS011;54569;52.018;5.584;2022-11-18T13:02:20;8.07;;;3.38;;
67768;SDS011;54569;52.018;5.584;2022-11-18T13:07:32;6.20;;;3.13;;
67768;SDS011;54569;52.018;5.584;2022-11-18T13:10:22;6.28;;;3.08;;
67768;SDS011;54569;52.018;5.584;2022-11-18T13:12:51;5.40;;;3.45;;
67768;SDS011;54569;52.018;5.584;2022-11-18T13:15:18;4.85;;;2.95;;
67768;SDS011;54569;52.018;5.584;2022-11-18T13:20:53;4.00;;;2.65;;
67768;SDS011;54569;52.018;5.584;2022-11-18T13:23:43;6.47;;;2.88;;
67768;SDS011;54569;52.018;5.584;2022-11-18T13:26:31;6.68;;;3.15;;
67768;SDS011;54569;52.018;5.584;2022-11-18T13:31:53;5.47;;;4.07;;
67768;SDS011;54569;52.018;5.584;2022-11-18T13:34:24;7.15;;;3.30;;
67768;SDS011;54569;52.018;5.584;2022-11-18T13:36:52;3.60;;;3.30;;
67768;SDS011;54569;52.018;5.584;2022-11-18T13:39:21;5.75;;;3.58;;
67768;SDS011;54569;52.018;5.584;2022-11-18T13:41:58;6.90;;;3.60;;
67768;SDS011;54569;52.018;5.584;2022-11-18T13:44:26;5.15;;;3.55;;
67768;SDS011;54569;52.018;5.584;2022-11-18T13:47:45;4.75;;;3.42;;
67768;SDS011;54569;52.018;5.584;2022-11-18T13:49:59;5.38;;;3.72;;
67768;SDS011;54569;52.018;5.584;2022-11-18T13:52:27;5.78;;;3.80;;
67768;SDS011;54569;52.018;5.584;2022-11-18T13:55:01;5.65;;;3.60;;
67768;SDS011;54569;52.018;5.584;2022-11-18T13:57:32;6.40;;;3.78;;
67768;SDS011;54569;52.018;5.584;2022-11-18T14:00:01;5.68;;;3.95;;
67768;SDS011;54569;52.018;5.584;2022-11-18T14:02:36;7.22;;;3.80;;
67768;SDS011;54569;52.018;5.584;2022-11-18T14:05:03;4.80;;;3.80;;
67768;SDS011;54569;52.018;5.584;2022-11-18T14:07:30;7.65;;;3.83;;
67768;SDS011;54569;52.018;5.584;2022-11-18T14:09:59;5.22;;;3.47;;
67768;SDS011;54569;52.018;5.584;2022-11-18T14:12:27;6.15;;;3.92;;
67768;SDS011;54569;52.018;5.584;2022-11-18T14:17:55;8.95;;;3.60;;
67768;SDS011;54569;52.018;5.584;2022-11-18T14:20:23;6.38;;;3.60;;
67768;SDS011;54569;52.018;5.584;2022-11-18T14:22:52;8.48;;;3.90;;
67768;SDS011;54569;52.018;5.584;2022-11-18T14:25:33;8.25;;;3.50;;
67768;SDS011;54569;52.018;5.584;2022-11-18T14:28:18;7.63;;;4.40;;
67768;SDS011;54569;52.018;5.584;2022-11-18T14:33:23;8.80;;;4.88;;
67768;SDS011;54569;52.018;5.584;2022-11-18T14:35:50;11.55;;;4.93;;
67768;SDS011;54569;52.018;5.584;2022-11-18T14:38:18;8.35;;;5.32;;
67768;SDS011;54569;52.018;5.584;2022-11-18T14:40:52;7.28;;;5.20;;
67768;SDS011;54569;52.018;5.584;2022-11-18T14:43:21;5.78;;;5.05;;
67768;SDS011;54569;52.018;5.584;2022-11-18T14:45:47;8.63;;;5.82;;
67768;SDS011;54569;52.018;5.584;2022-11-18T14:48:13;7.97;;;5.22;;
67768;SDS011;54569;52.018;5.584;2022-11-18T14:50:41;9.70;;;5.85;;
67768;SDS011;54569;52.018;5.584;2022-11-18T14:53:10;8.48;;;6.07;;
67768;SDS011;54569;52.018;5.584;2022-11-18T14:55:36;8.93;;;5.82;;
67768;SDS011;54569;52.018;5.584;2022-11-18T14:58:08;6.45;;;4.18;;
67768;SDS011;54569;52.018;5.584;2022-11-18T15:00:38;9.30;;;4.45;;
67768;SDS011;54569;52.018;5.584;2022-11-18T15:03:03;14.38;;;4.97;;
67768;SDS011;54569;52.018;5.584;2022-11-18T15:05:29;9.57;;;5.25;;
67768;SDS011;54569;52.018;5.584;2022-11-18T15:07:55;7.10;;;4.00;;
67768;SDS011;54569;52.018;5.584;2022-11-18T15:10:21;6.93;;;4.40;;
67768;SDS011;54569;52.018;5.584;2022-11-18T15:12:46;6.53;;;3.97;;
67768;SDS011;54569;52.018;5.584;2022-11-18T15:15:12;7.75;;;4.40;;
67768;SDS011;54569;52.018;5.584;2022-11-18T15:17:38;5.97;;;4.18;;
67768;SDS011;54569;52.018;5.584;2022-11-18T15:20:04;7.40;;;4.05;;
67768;SDS011;54569;52.018;5.584;2022-11-18T15:22:31;7.60;;;4.80;;
67768;SDS011;54569;52.018;5.584;2022-11-18T15:24:57;5.82;;;4.38;;
67768;SDS011;54569;52.018;5.584;2022-11-18T15:27:23;8.65;;;4.60;;
67768;SDS011;54569;52.018;5.584;2022-11-18T15:29:49;6.72;;;4.53;;
67768;SDS011;54569;52.018;5.584;2022-11-18T15:32:14;7.53;;;4.35;;
67768;SDS011;54569;52.018;5.584;2022-11-18T15:34:40;5.18;;;4.28;;
67768;SDS011;54569;52.018;5.584;2022-11-18T15:37:08;10.15;;;4.70;;
67768;SDS011;54569;52.018;5.584;2022-11-18T15:39:36;7.43;;;4.75;;
67768;SDS011;54569;52.018;5.584;2022-11-18T15:42:01;8.25;;;5.18;;
67768;SDS011;54569;52.018;5.584;2022-11-18T15:44:27;8.57;;;5.70;;
67768;SDS011;54569;52.018;5.584;2022-11-18T15:46:53;10.30;;;5.07;;
67768;SDS011;54569;52.018;5.584;2022-11-18T15:49:19;8.18;;;5.10;;
67768;SDS011;54569;52.018;5.584;2022-11-18T15:51:45;8.45;;;5.35;;
67768;SDS011;54569;52.018;5.584;2022-11-18T15:54:10;9.55;;;5.75;;
67768;SDS011;54569;52.018;5.584;2022-11-18T15:56:36;8.02;;;5.25;;
67768;SDS011;54569;52.018;5.584;2022-11-18T15:59:10;7.22;;;5.40;;
67768;SDS011;54569;52.018;5.584;2022-11-18T16:01:41;6.30;;;5.40;;
67768;SDS011;54569;52.018;5.584;2022-11-18T16:04:14;10.20;;;6.70;;
67768;SDS011;54569;52.018;5.584;2022-11-18T16:06:41;8.73;;;6.43;;
67768;SDS011;54569;52.018;5.584;2022-11-18T16:09:10;10.48;;;6.30;;
67768;SDS011;54569;52.018;5.584;2022-11-18T16:11:36;8.52;;;6.07;;
67768;SDS011;54569;52.018;5.584;2022-11-18T16:14:21;7.43;;;6.10;;
67768;SDS011;54569;52.018;5.584;2022-11-18T16:16:48;9.48;;;5.60;;
67768;SDS011;54569;52.018;5.584;2022-11-18T16:19:16;10.90;;;6.35;;
67768;SDS011;54569;52.018;5.584;2022-11-18T16:21:47;8.07;;;5.82;;
67768;SDS011;54569;52.018;5.584;2022-11-18T16:24:20;9.32;;;5.90;;
67768;SDS011;54569;52.018;5.584;2022-11-18T16:29:16;9.68;;;6.28;;
67768;SDS011;54569;52.018;5.584;2022-11-18T16:31:42;11.90;;;6.95;;
67768;SDS011;54569;52.018;5.584;2022-11-18T16:36:40;11.40;;;7.22;;
67768;SDS011;54569;52.018;5.584;2022-11-18T16:39:11;7.75;;;6.95;;
67768;SDS011;54569;52.018;5.584;2022-11-18T16:41:38;11.00;;;7.57;;
67768;SDS011;54569;52.018;5.584;2022-11-18T16:44:15;8.95;;;6.55;;
67768;SDS011;54569;52.018;5.584;2022-11-18T16:46:43;15.82;;;7.28;;
67768;SDS011;54569;52.018;5.584;2022-11-18T16:49:12;8.35;;;6.90;;
67768;SDS011;54569;52.018;5.584;2022-11-18T16:51:40;12.63;;;7.75;;
67768;SDS011;54569;52.018;5.584;2022-11-18T16:54:07;13.00;;;7.53;;
67768;SDS011;54569;52.018;5.584;2022-11-18T16:56:45;12.75;;;7.28;;
67768;SDS011;54569;52.018;5.584;2022-11-18T16:59:21;13.05;;;7.50;;
67768;SDS011;54569;52.018;5.584;2022-11-18T17:01:48;11.23;;;8.43;;